sensor_id;sensor_type;location;lat;lon;timestamp;P1;durP1;ratioP1;P2;durP2;ratioP2
23747;SDS011;12054;53.662;10.126;2023-06-10T00:02:02;9.80;;;4.30;;
23747;SDS011;12054;53.662;10.126;2023-06-10T00:04:28;6.15;;;3.75;;
23747;SDS011;12054;53.662;10.126;2023-06-10T00:06:54;8.95;;;4.05;;
23747;SDS011;12054;53.662;10.126;2023-06-10T00:09:20;7.90;;;3.90;;
23747;SDS011;12054;53.662;10.126;2023-06-10T00:11:46;8.63;;;3.67;;
23747;SDS011;12054;53.662;10.126;2023-06-10T00:14:12;6.70;;;3.72;;
23747;SDS011;12054;53.662;10.126;2023-06-10T00:16:38;7.82;;;3.90;;
23747;SDS011;12054;53.662;10.126;2023-06-10T00:19:03;9.13;;;4.30;;
23747;SDS011;12054;53.662;10.126;2023-06-10T00:21:30;7.32;;;4.30;;
23747;SDS011;12054;53.662;10.126;2023-06-10T00:24:03;5.78;;;3.40;;
23747;SDS011;12054;53.662;10.126;2023-06-10T00:26:30;6.07;;;3.35;;
23747;SDS011;12054;53.662;10.126;2023-06-10T00:28:55;7.35;;;3.70;;
23747;SDS011;12054;53.662;10.126;2023-06-10T00:31:21;7.35;;;4.38;;
23747;SDS011;12054;53.662;10.126;2023-06-10T00:33:46;5.68;;;3.03;;
23747;SDS011;12054;53.662;10.126;2023-06-10T00:36:12;7.15;;;3.65;;
23747;SDS011;12054;53.662;10.126;2023-06-10T00:38:37;7.32;;;3.50;;
23747;SDS011;12054;53.662;10.126;2023-06-10T00:41:03;5.47;;;3.13;;
23747;SDS011;12054;53.662;10.126;2023-06-10T00:43:28;5.93;;;3.35;;
23747;SDS011;12054;53.662;10.126;2023-06-10T00:45:55;9.35;;;3.53;;
23747;SDS011;12054;53.662;10.126;2023-06-10T00:48:20;6.47;;;3.15;;
23747;SDS011;12054;53.662;10.126;2023-06-10T00:50:46;8.50;;;3.50;;
23747;SDS011;12054;53.662;10.126;2023-06-10T00:53:12;6.80;;;3.30;;
23747;SDS011;12054;53.662;10.126;2023-06-10T00:55:38;8.52;;;3.47;;
23747;SDS011;12054;53.662;10.126;2023-06-10T00:58:05;7.63;;;3.40;;
23747;SDS011;12054;53.662;10.126;2023-06-10T01:00:32;12.32;;;3.45;;
23747;SDS011;12054;53.662;10.126;2023-06-10T01:02:57;6.38;;;3.28;;
23747;SDS011;12054;53.662;10.126;2023-06-10T01:05:23;7.10;;;3.45;;
23747;SDS011;12054;53.662;10.126;2023-06-10T01:07:59;6.85;;;3.53;;
23747;SDS011;12054;53.662;10.126;2023-06-10T01:10:46;5.60;;;3.17;;
23747;SDS011;12054;53.662;10.126;2023-06-10T01:13:23;6.85;;;3.08;;
23747;SDS011;12054;53.662;10.126;2023-06-10T01:15:53;6.50;;;3.13;;
23747;SDS011;12054;53.662;10.126;2023-06-10T01:18:20;6.05;;;3.10;;
23747;SDS011;12054;53.662;10.126;2023-06-10T01:20:47;6.07;;;3.25;;
23747;SDS011;12054;53.662;10.126;2023-06-10T01:23:13;5.63;;;2.92;;
23747;SDS011;12054;53.662;10.126;2023-06-10T01:25:41;5.70;;;3.28;;
23747;SDS011;12054;53.662;10.126;2023-06-10T01:28:58;10.82;;;3.40;;
23747;SDS011;12054;53.662;10.126;2023-06-10T01:31:13;6.82;;;2.90;;
23747;SDS011;12054;53.662;10.126;2023-06-10T01:33:43;8.13;;;2.78;;
23747;SDS011;12054;53.662;10.126;2023-06-10T01:36:12;7.65;;;2.50;;
23747;SDS011;12054;53.662;10.126;2023-06-10T01:38:41;7.97;;;3.15;;
23747;SDS011;12054;53.662;10.126;2023-06-10T01:41:09;4.07;;;2.65;;
23747;SDS011;12054;53.662;10.126;2023-06-10T01:43:39;8.02;;;2.83;;
23747;SDS011;12054;53.662;10.126;2023-06-10T01:46:05;5.82;;;2.65;;
23747;SDS011;12054;53.662;10.126;2023-06-10T01:48:31;7.63;;;2.88;;
23747;SDS011;12054;53.662;10.126;2023-06-10T01:50:57;7.68;;;2.60;;
23747;SDS011;12054;53.662;10.126;2023-06-10T01:53:23;5.22;;;2.50;;
23747;SDS011;12054;53.662;10.126;2023-06-10T01:55:49;7.13;;;2.58;;
23747;SDS011;12054;53.662;10.126;2023-06-10T01:58:14;6.10;;;2.63;;
23747;SDS011;12054;53.662;10.126;2023-06-10T02:00:40;7.43;;;2.50;;
23747;SDS011;12054;53.662;10.126;2023-06-10T02:03:05;4.68;;;2.35;;
23747;SDS011;12054;53.662;10.126;2023-06-10T02:05:31;7.70;;;2.75;;
23747;SDS011;12054;53.662;10.126;2023-06-10T02:07:57;8.48;;;3.03;;
23747;SDS011;12054;53.662;10.126;2023-06-10T02:10:23;6.80;;;2.65;;
23747;SDS011;12054;53.662;10.126;2023-06-10T02:12:48;7.75;;;3.05;;
23747;SDS011;12054;53.662;10.126;2023-06-10T02:15:14;4.53;;;2.28;;
23747;SDS011;12054;53.662;10.126;2023-06-10T02:17:40;5.10;;;2.50;;
23747;SDS011;12054;53.662;10.126;2023-06-10T02:20:05;8.05;;;2.72;;
23747;SDS011;12054;53.662;10.126;2023-06-10T02:22:36;4.55;;;2.38;;
23747;SDS011;12054;53.662;10.126;2023-06-10T02:25:02;6.07;;;2.60;;
23747;SDS011;12054;53.662;10.126;2023-06-10T02:27:28;5.47;;;2.50;;
23747;SDS011;12054;53.662;10.126;2023-06-10T02:29:55;3.45;;;2.55;;
23747;SDS011;12054;53.662;10.126;2023-06-10T02:32:21;5.20;;;2.47;;
23747;SDS011;12054;53.662;10.126;2023-06-10T02:34:46;5.22;;;2.20;;
23747;SDS011;12054;53.662;10.126;2023-06-10T02:37:12;7.43;;;2.88;;
23747;SDS011;12054;53.662;10.126;2023-06-10T02:39:38;4.72;;;2.00;;
23747;SDS011;12054;53.662;10.126;2023-06-10T02:42:03;4.03;;;2.00;;
23747;SDS011;12054;53.662;10.126;2023-06-10T02:44:30;6.53;;;2.75;;
23747;SDS011;12054;53.662;10.126;2023-06-10T02:46:55;5.80;;;2.78;;
23747;SDS011;12054;53.662;10.126;2023-06-10T02:49:21;7.35;;;3.15;;
23747;SDS011;12054;53.662;10.126;2023-06-10T02:51:46;5.50;;;2.33;;
23747;SDS011;12054;53.662;10.126;2023-06-10T02:54:12;5.45;;;2.15;;
23747;SDS011;12054;53.662;10.126;2023-06-10T02:56:37;7.13;;;2.58;;
23747;SDS011;12054;53.662;10.126;2023-06-10T02:59:06;3.67;;;2.45;;
23747;SDS011;12054;53.662;10.126;2023-06-10T03:01:34;5.80;;;2.50;;
23747;SDS011;12054;53.662;10.126;2023-06-10T03:04:01;4.35;;;2.45;;
23747;SDS011;12054;53.662;10.126;2023-06-10T03:06:28;6.82;;;2.67;;
23747;SDS011;12054;53.662;10.126;2023-06-10T03:08:54;5.40;;;3.00;;
23747;SDS011;12054;53.662;10.126;2023-06-10T03:11:20;5.05;;;2.33;;
23747;SDS011;12054;53.662;10.126;2023-06-10T03:13:45;5.47;;;2.10;;
23747;SDS011;12054;53.662;10.126;2023-06-10T03:16:11;7.88;;;2.80;;
23747;SDS011;12054;53.662;10.126;2023-06-10T03:18:37;8.10;;;3.10;;
23747;SDS011;12054;53.662;10.126;2023-06-10T03:21:03;5.57;;;2.38;;
23747;SDS011;12054;53.662;10.126;2023-06-10T03:23:28;6.07;;;2.63;;
23747;SDS011;12054;53.662;10.126;2023-06-10T03:25:54;6.43;;;2.63;;
23747;SDS011;12054;53.662;10.126;2023-06-10T03:28:20;6.68;;;2.60;;
23747;SDS011;12054;53.662;10.126;2023-06-10T03:30:46;5.28;;;2.70;;
23747;SDS011;12054;53.662;10.126;2023-06-10T03:33:12;4.43;;;2.40;;
23747;SDS011;12054;53.662;10.126;2023-06-10T03:35:38;6.55;;;2.40;;
23747;SDS011;12054;53.662;10.126;2023-06-10T03:38:05;6.75;;;2.42;;
23747;SDS011;12054;53.662;10.126;2023-06-10T03:40:31;6.82;;;2.40;;
23747;SDS011;12054;53.662;10.126;2023-06-10T03:42:57;4.97;;;2.10;;
23747;SDS011;12054;53.662;10.126;2023-06-10T03:45:22;4.32;;;2.25;;
23747;SDS011;12054;53.662;10.126;2023-06-10T03:47:49;5.28;;;2.40;;
23747;SDS011;12054;53.662;10.126;2023-06-10T03:50:15;4.35;;;2.15;;
23747;SDS011;12054;53.662;10.126;2023-06-10T03:52:41;8.30;;;2.75;;
23747;SDS011;12054;53.662;10.126;2023-06-10T03:55:06;7.75;;;2.50;;
23747;SDS011;12054;53.662;10.126;2023-06-10T03:57:32;6.95;;;2.30;;
23747;SDS011;12054;53.662;10.126;2023-06-10T03:59:58;3.75;;;2.20;;
23747;SDS011;12054;53.662;10.126;2023-06-10T04:02:23;8.25;;;2.67;;
23747;SDS011;12054;53.662;10.126;2023-06-10T04:04:49;7.35;;;2.30;;
23747;SDS011;12054;53.662;10.126;2023-06-10T04:07:16;8.15;;;2.40;;
23747;SDS011;12054;53.662;10.126;2023-06-10T04:09:44;5.00;;;2.22;;
23747;SDS011;12054;53.662;10.126;2023-06-10T04:12:09;7.30;;;2.50;;
23747;SDS011;12054;53.662;10.126;2023-06-10T04:14:35;6.55;;;2.80;;
23747;SDS011;12054;53.662;10.126;2023-06-10T04:17:02;7.07;;;2.72;;
23747;SDS011;12054;53.662;10.126;2023-06-10T04:19:31;7.13;;;2.45;;
23747;SDS011;12054;53.662;10.126;2023-06-10T04:21:57;4.47;;;2.47;;
23747;SDS011;12054;53.662;10.126;2023-06-10T04:24:23;5.43;;;2.50;;
23747;SDS011;12054;53.662;10.126;2023-06-10T04:26:48;5.55;;;2.60;;
23747;SDS011;12054;53.662;10.126;2023-06-10T04:29:14;5.35;;;2.35;;
23747;SDS011;12054;53.662;10.126;2023-06-10T04:31:39;6.80;;;2.67;;
23747;SDS011;12054;53.662;10.126;2023-06-10T04:34:05;6.85;;;2.67;;
23747;SDS011;12054;53.662;10.126;2023-06-10T04:36:32;5.20;;;2.55;;
23747;SDS011;12054;53.662;10.126;2023-06-10T04:38:58;7.38;;;2.67;;
23747;SDS011;12054;53.662;10.126;2023-06-10T04:41:23;5.40;;;2.58;;
23747;SDS011;12054;53.662;10.126;2023-06-10T04:43:50;6.95;;;2.95;;
23747;SDS011;12054;53.662;10.126;2023-06-10T04:46:16;9.68;;;3.20;;
23747;SDS011;12054;53.662;10.126;2023-06-10T04:48:42;6.43;;;3.03;;
23747;SDS011;12054;53.662;10.126;2023-06-10T04:51:07;7.22;;;2.80;;
23747;SDS011;12054;53.662;10.126;2023-06-10T04:53:32;7.10;;;2.90;;
23747;SDS011;12054;53.662;10.126;2023-06-10T04:55:58;6.00;;;2.50;;
23747;SDS011;12054;53.662;10.126;2023-06-10T04:58:24;6.13;;;2.60;;
23747;SDS011;12054;53.662;10.126;2023-06-10T05:00:49;6.60;;;2.47;;
23747;SDS011;12054;53.662;10.126;2023-06-10T05:03:15;5.93;;;2.25;;
23747;SDS011;12054;53.662;10.126;2023-06-10T05:05:40;5.63;;;2.22;;
23747;SDS011;12054;53.662;10.126;2023-06-10T05:08:06;7.53;;;3.05;;
23747;SDS011;12054;53.662;10.126;2023-06-10T05:10:31;6.05;;;2.70;;
23747;SDS011;12054;53.662;10.126;2023-06-10T05:12:57;4.75;;;2.60;;
23747;SDS011;12054;53.662;10.126;2023-06-10T05:15:23;5.57;;;2.35;;
23747;SDS011;12054;53.662;10.126;2023-06-10T05:17:50;7.97;;;2.50;;
23747;SDS011;12054;53.662;10.126;2023-06-10T05:20:16;9.25;;;2.40;;
23747;SDS011;12054;53.662;10.126;2023-06-10T05:22:43;8.85;;;2.65;;
23747;SDS011;12054;53.662;10.126;2023-06-10T05:25:09;9.38;;;2.00;;
23747;SDS011;12054;53.662;10.126;2023-06-10T05:27:35;8.55;;;2.17;;
23747;SDS011;12054;53.662;10.126;2023-06-10T05:30:01;6.07;;;2.00;;
23747;SDS011;12054;53.662;10.126;2023-06-10T05:32:27;8.88;;;2.35;;
23747;SDS011;12054;53.662;10.126;2023-06-10T05:34:52;7.15;;;1.80;;
23747;SDS011;12054;53.662;10.126;2023-06-10T05:37:18;8.75;;;2.25;;
23747;SDS011;12054;53.662;10.126;2023-06-10T05:39:43;3.88;;;1.75;;
23747;SDS011;12054;53.662;10.126;2023-06-10T05:42:09;5.80;;;1.88;;
23747;SDS011;12054;53.662;10.126;2023-06-10T05:44:35;11.15;;;2.33;;
23747;SDS011;12054;53.662;10.126;2023-06-10T05:47:00;3.30;;;1.70;;
23747;SDS011;12054;53.662;10.126;2023-06-10T05:49:26;7.75;;;2.35;;
23747;SDS011;12054;53.662;10.126;2023-06-10T05:51:52;6.70;;;1.88;;
23747;SDS011;12054;53.662;10.126;2023-06-10T05:54:18;6.25;;;2.15;;
23747;SDS011;12054;53.662;10.126;2023-06-10T05:56:43;7.28;;;2.50;;
23747;SDS011;12054;53.662;10.126;2023-06-10T05:59:09;9.55;;;2.50;;
23747;SDS011;12054;53.662;10.126;2023-06-10T06:01:35;8.27;;;1.95;;
23747;SDS011;12054;53.662;10.126;2023-06-10T06:04:00;7.22;;;2.10;;
23747;SDS011;12054;53.662;10.126;2023-06-10T06:06:26;5.28;;;1.83;;
23747;SDS011;12054;53.662;10.126;2023-06-10T06:08:51;5.18;;;2.30;;
23747;SDS011;12054;53.662;10.126;2023-06-10T06:11:17;6.55;;;2.22;;
23747;SDS011;12054;53.662;10.126;2023-06-10T06:13:42;6.65;;;1.75;;
23747;SDS011;12054;53.662;10.126;2023-06-10T06:16:08;6.35;;;2.00;;
23747;SDS011;12054;53.662;10.126;2023-06-10T06:18:33;6.28;;;2.00;;
23747;SDS011;12054;53.662;10.126;2023-06-10T06:20:59;4.90;;;1.95;;
23747;SDS011;12054;53.662;10.126;2023-06-10T06:23:25;6.25;;;1.83;;
23747;SDS011;12054;53.662;10.126;2023-06-10T06:25:50;8.57;;;2.08;;
23747;SDS011;12054;53.662;10.126;2023-06-10T06:28:16;3.38;;;1.88;;
23747;SDS011;12054;53.662;10.126;2023-06-10T06:30:41;5.65;;;1.90;;
23747;SDS011;12054;53.662;10.126;2023-06-10T06:33:07;7.40;;;1.90;;
23747;SDS011;12054;53.662;10.126;2023-06-10T06:35:33;8.50;;;2.08;;
23747;SDS011;12054;53.662;10.126;2023-06-10T06:37:59;7.15;;;2.28;;
23747;SDS011;12054;53.662;10.126;2023-06-10T06:40:25;6.05;;;2.00;;
23747;SDS011;12054;53.662;10.126;2023-06-10T06:42:51;12.45;;;2.00;;
23747;SDS011;12054;53.662;10.126;2023-06-10T06:45:16;6.45;;;2.40;;
23747;SDS011;12054;53.662;10.126;2023-06-10T06:47:42;6.70;;;1.63;;
23747;SDS011;12054;53.662;10.126;2023-06-10T06:50:08;6.45;;;1.92;;
23747;SDS011;12054;53.662;10.126;2023-06-10T06:52:35;6.10;;;1.90;;
23747;SDS011;12054;53.662;10.126;2023-06-10T06:55:01;8.00;;;2.33;;
23747;SDS011;12054;53.662;10.126;2023-06-10T06:57:26;4.90;;;2.28;;
23747;SDS011;12054;53.662;10.126;2023-06-10T06:59:52;5.90;;;1.88;;
23747;SDS011;12054;53.662;10.126;2023-06-10T07:02:17;9.25;;;2.28;;
23747;SDS011;12054;53.662;10.126;2023-06-10T07:04:44;6.68;;;2.25;;
23747;SDS011;12054;53.662;10.126;2023-06-10T07:07:10;9.20;;;3.17;;
23747;SDS011;12054;53.662;10.126;2023-06-10T07:09:37;5.05;;;1.88;;
23747;SDS011;12054;53.662;10.126;2023-06-10T07:12:02;5.13;;;2.28;;
23747;SDS011;12054;53.662;10.126;2023-06-10T07:14:28;4.15;;;1.92;;
23747;SDS011;12054;53.662;10.126;2023-06-10T07:16:54;4.72;;;2.17;;
23747;SDS011;12054;53.662;10.126;2023-06-10T07:19:20;5.63;;;2.20;;
23747;SDS011;12054;53.662;10.126;2023-06-10T07:21:45;5.38;;;2.10;;
23747;SDS011;12054;53.662;10.126;2023-06-10T07:24:11;6.68;;;2.28;;
23747;SDS011;12054;53.662;10.126;2023-06-10T07:26:36;5.25;;;2.20;;
23747;SDS011;12054;53.662;10.126;2023-06-10T07:29:02;4.75;;;1.88;;
23747;SDS011;12054;53.662;10.126;2023-06-10T07:31:27;5.43;;;2.35;;
23747;SDS011;12054;53.662;10.126;2023-06-10T07:33:53;4.10;;;1.90;;
23747;SDS011;12054;53.662;10.126;2023-06-10T07:36:19;6.60;;;2.08;;
23747;SDS011;12054;53.662;10.126;2023-06-10T07:38:45;7.28;;;2.25;;
23747;SDS011;12054;53.662;10.126;2023-06-10T07:41:10;6.25;;;2.35;;
23747;SDS011;12054;53.662;10.126;2023-06-10T07:43:36;5.68;;;2.08;;
23747;SDS011;12054;53.662;10.126;2023-06-10T07:46:02;6.13;;;2.22;;
23747;SDS011;12054;53.662;10.126;2023-06-10T07:48:28;5.85;;;2.33;;
23747;SDS011;12054;53.662;10.126;2023-06-10T07:50:53;7.85;;;2.35;;
23747;SDS011;12054;53.662;10.126;2023-06-10T07:53:19;5.00;;;2.10;;
23747;SDS011;12054;53.662;10.126;2023-06-10T07:55:45;5.65;;;2.22;;
23747;SDS011;12054;53.662;10.126;2023-06-10T07:58:10;7.15;;;2.30;;
23747;SDS011;12054;53.662;10.126;2023-06-10T08:00:36;4.22;;;2.30;;
23747;SDS011;12054;53.662;10.126;2023-06-10T08:03:02;5.70;;;2.40;;
23747;SDS011;12054;53.662;10.126;2023-06-10T08:05:27;4.43;;;2.10;;
23747;SDS011;12054;53.662;10.126;2023-06-10T08:07:53;6.18;;;2.33;;
23747;SDS011;12054;53.662;10.126;2023-06-10T08:10:20;8.48;;;2.75;;
23747;SDS011;12054;53.662;10.126;2023-06-10T08:12:45;4.13;;;2.28;;
23747;SDS011;12054;53.662;10.126;2023-06-10T08:15:14;6.43;;;2.25;;
23747;SDS011;12054;53.662;10.126;2023-06-10T08:17:39;8.13;;;2.47;;
23747;SDS011;12054;53.662;10.126;2023-06-10T08:20:05;4.95;;;2.45;;
23747;SDS011;12054;53.662;10.126;2023-06-10T08:22:32;7.03;;;2.65;;
23747;SDS011;12054;53.662;10.126;2023-06-10T08:24:58;6.10;;;2.47;;
23747;SDS011;12054;53.662;10.126;2023-06-10T08:27:24;5.43;;;3.00;;
23747;SDS011;12054;53.662;10.126;2023-06-10T08:29:50;6.43;;;2.42;;
23747;SDS011;12054;53.662;10.126;2023-06-10T08:32:15;6.60;;;2.50;;
23747;SDS011;12054;53.662;10.126;2023-06-10T08:34:41;8.32;;;2.63;;
23747;SDS011;12054;53.662;10.126;2023-06-10T08:37:06;7.78;;;2.45;;
23747;SDS011;12054;53.662;10.126;2023-06-10T08:39:33;5.18;;;2.42;;
23747;SDS011;12054;53.662;10.126;2023-06-10T08:42:18;4.47;;;2.60;;
23747;SDS011;12054;53.662;10.126;2023-06-10T08:44:48;4.65;;;2.58;;
23747;SDS011;12054;53.662;10.126;2023-06-10T08:47:26;7.03;;;3.05;;
23747;SDS011;12054;53.662;10.126;2023-06-10T08:50:05;8.30;;;3.55;;
23747;SDS011;12054;53.662;10.126;2023-06-10T08:52:35;5.93;;;3.03;;
23747;SDS011;12054;53.662;10.126;2023-06-10T08:55:03;5.47;;;2.90;;
23747;SDS011;12054;53.662;10.126;2023-06-10T08:57:38;6.22;;;2.80;;
23747;SDS011;12054;53.662;10.126;2023-06-10T09:00:08;7.03;;;2.67;;
23747;SDS011;12054;53.662;10.126;2023-06-10T09:02:35;3.85;;;2.60;;
23747;SDS011;12054;53.662;10.126;2023-06-10T09:05:03;7.15;;;2.67;;
23747;SDS011;12054;53.662;10.126;2023-06-10T09:07:32;5.97;;;3.50;;
23747;SDS011;12054;53.662;10.126;2023-06-10T09:09:59;5.03;;;2.90;;
23747;SDS011;12054;53.662;10.126;2023-06-10T09:12:28;5.85;;;2.63;;
23747;SDS011;12054;53.662;10.126;2023-06-10T09:14:55;4.32;;;2.60;;
23747;SDS011;12054;53.662;10.126;2023-06-10T09:17:21;5.93;;;3.13;;
23747;SDS011;12054;53.662;10.126;2023-06-10T09:19:47;7.90;;;3.35;;
23747;SDS011;12054;53.662;10.126;2023-06-10T09:22:22;6.97;;;3.03;;
23747;SDS011;12054;53.662;10.126;2023-06-10T09:24:49;7.35;;;3.30;;
23747;SDS011;12054;53.662;10.126;2023-06-10T09:27:15;5.85;;;3.65;;
23747;SDS011;12054;53.662;10.126;2023-06-10T09:29:47;8.05;;;3.50;;
23747;SDS011;12054;53.662;10.126;2023-06-10T09:32:22;6.30;;;3.42;;
23747;SDS011;12054;53.662;10.126;2023-06-10T09:34:49;6.32;;;3.08;;
23747;SDS011;12054;53.662;10.126;2023-06-10T09:37:22;7.15;;;2.97;;
23747;SDS011;12054;53.662;10.126;2023-06-10T09:40:07;6.97;;;3.15;;
23747;SDS011;12054;53.662;10.126;2023-06-10T09:42:35;8.52;;;3.10;;
23747;SDS011;12054;53.662;10.126;2023-06-10T09:45:03;7.50;;;2.80;;
23747;SDS011;12054;53.662;10.126;2023-06-10T09:47:30;6.78;;;3.25;;
23747;SDS011;12054;53.662;10.126;2023-06-10T09:49:56;5.45;;;3.60;;
23747;SDS011;12054;53.662;10.126;2023-06-10T09:52:25;6.38;;;3.40;;
23747;SDS011;12054;53.662;10.126;2023-06-10T09:54:52;7.03;;;3.55;;
23747;SDS011;12054;53.662;10.126;2023-06-10T09:57:21;11.02;;;3.17;;
23747;SDS011;12054;53.662;10.126;2023-06-10T09:59:47;4.85;;;2.78;;
23747;SDS011;12054;53.662;10.126;2023-06-10T10:02:17;9.80;;;3.50;;
23747;SDS011;12054;53.662;10.126;2023-06-10T10:04:43;6.40;;;3.33;;
23747;SDS011;12054;53.662;10.126;2023-06-10T10:07:09;6.65;;;3.45;;
23747;SDS011;12054;53.662;10.126;2023-06-10T10:09:36;8.63;;;3.53;;
23747;SDS011;12054;53.662;10.126;2023-06-10T10:12:04;8.63;;;3.58;;
23747;SDS011;12054;53.662;10.126;2023-06-10T10:14:40;7.47;;;3.47;;
23747;SDS011;12054;53.662;10.126;2023-06-10T10:17:10;8.15;;;3.35;;
23747;SDS011;12054;53.662;10.126;2023-06-10T10:19:40;8.07;;;2.97;;
23747;SDS011;12054;53.662;10.126;2023-06-10T10:22:14;5.28;;;3.00;;
23747;SDS011;12054;53.662;10.126;2023-06-10T10:24:52;8.40;;;3.33;;
23747;SDS011;12054;53.662;10.126;2023-06-10T10:27:21;9.10;;;3.20;;
23747;SDS011;12054;53.662;10.126;2023-06-10T10:30:00;8.13;;;3.08;;
23747;SDS011;12054;53.662;10.126;2023-06-10T10:32:50;8.65;;;3.25;;
23747;SDS011;12054;53.662;10.126;2023-06-10T10:35:17;7.80;;;3.40;;
23747;SDS011;12054;53.662;10.126;2023-06-10T10:37:52;8.68;;;3.40;;
23747;SDS011;12054;53.662;10.126;2023-06-10T10:40:19;8.73;;;2.92;;
23747;SDS011;12054;53.662;10.126;2023-06-10T10:42:47;5.47;;;2.80;;
23747;SDS011;12054;53.662;10.126;2023-06-10T10:45:16;8.70;;;3.35;;
23747;SDS011;12054;53.662;10.126;2023-06-10T10:47:43;6.40;;;3.13;;
23747;SDS011;12054;53.662;10.126;2023-06-10T10:50:17;6.45;;;3.05;;
23747;SDS011;12054;53.662;10.126;2023-06-10T10:52:46;13.82;;;3.35;;
23747;SDS011;12054;53.662;10.126;2023-06-10T10:55:20;7.57;;;3.25;;
23747;SDS011;12054;53.662;10.126;2023-06-10T11:00:24;8.93;;;3.65;;
23747;SDS011;12054;53.662;10.126;2023-06-10T11:03:00;7.57;;;3.15;;
23747;SDS011;12054;53.662;10.126;2023-06-10T11:05:31;6.65;;;3.35;;
23747;SDS011;12054;53.662;10.126;2023-06-10T11:08:03;6.35;;;3.15;;
23747;SDS011;12054;53.662;10.126;2023-06-10T11:10:37;6.78;;;3.17;;
23747;SDS011;12054;53.662;10.126;2023-06-10T11:13:15;6.93;;;3.00;;
23747;SDS011;12054;53.662;10.126;2023-06-10T11:15:49;6.97;;;3.42;;
23747;SDS011;12054;53.662;10.126;2023-06-10T11:18:20;12.82;;;3.70;;
23747;SDS011;12054;53.662;10.126;2023-06-10T11:31:27;6.88;;;3.60;;
23747;SDS011;12054;53.662;10.126;2023-06-10T11:33:58;8.50;;;3.83;;
23747;SDS011;12054;53.662;10.126;2023-06-10T11:36:28;7.13;;;4.50;;
23747;SDS011;12054;53.662;10.126;2023-06-10T11:39:01;7.47;;;3.97;;
23747;SDS011;12054;53.662;10.126;2023-06-10T11:41:29;5.45;;;3.72;;
23747;SDS011;12054;53.662;10.126;2023-06-10T11:43:56;7.35;;;3.80;;
23747;SDS011;12054;53.662;10.126;2023-06-10T11:46:29;8.00;;;3.72;;
23747;SDS011;12054;53.662;10.126;2023-06-10T11:48:56;10.05;;;4.22;;
23747;SDS011;12054;53.662;10.126;2023-06-10T11:51:26;7.50;;;4.25;;
23747;SDS011;12054;53.662;10.126;2023-06-10T11:53:53;4.95;;;3.42;;
23747;SDS011;12054;53.662;10.126;2023-06-10T11:56:20;8.15;;;3.78;;
23747;SDS011;12054;53.662;10.126;2023-06-10T11:58:53;10.13;;;3.53;;
23747;SDS011;12054;53.662;10.126;2023-06-10T12:01:24;6.47;;;3.97;;
23747;SDS011;12054;53.662;10.126;2023-06-10T12:04:01;6.47;;;3.35;;
23747;SDS011;12054;53.662;10.126;2023-06-10T12:06:44;6.43;;;3.95;;
23747;SDS011;12054;53.662;10.126;2023-06-10T12:09:17;9.25;;;3.80;;
23747;SDS011;12054;53.662;10.126;2023-06-10T12:17:16;6.75;;;3.78;;
23747;SDS011;12054;53.662;10.126;2023-06-10T12:19:42;7.68;;;3.80;;
23747;SDS011;12054;53.662;10.126;2023-06-10T12:22:07;13.35;;;4.32;;
23747;SDS011;12054;53.662;10.126;2023-06-10T12:24:34;11.70;;;3.88;;
23747;SDS011;12054;53.662;10.126;2023-06-10T12:27:21;6.70;;;3.80;;
23747;SDS011;12054;53.662;10.126;2023-06-10T12:29:51;4.65;;;3.50;;
23747;SDS011;12054;53.662;10.126;2023-06-10T12:32:20;6.90;;;3.58;;
23747;SDS011;12054;53.662;10.126;2023-06-10T12:35:06;8.70;;;3.85;;
23747;SDS011;12054;53.662;10.126;2023-06-10T12:37:32;6.53;;;4.00;;
23747;SDS011;12054;53.662;10.126;2023-06-10T12:40:02;7.75;;;4.05;;
23747;SDS011;12054;53.662;10.126;2023-06-10T12:42:28;8.32;;;4.10;;
23747;SDS011;12054;53.662;10.126;2023-06-10T12:44:56;5.15;;;3.78;;
23747;SDS011;12054;53.662;10.126;2023-06-10T12:47:32;8.23;;;3.92;;
23747;SDS011;12054;53.662;10.126;2023-06-10T12:49:59;6.45;;;3.72;;
23747;SDS011;12054;53.662;10.126;2023-06-10T12:52:28;9.27;;;3.92;;
23747;SDS011;12054;53.662;10.126;2023-06-10T12:54:54;8.77;;;3.78;;
23747;SDS011;12054;53.662;10.126;2023-06-10T12:57:20;5.22;;;3.17;;
23747;SDS011;12054;53.662;10.126;2023-06-10T12:59:47;5.50;;;3.25;;
23747;SDS011;12054;53.662;10.126;2023-06-10T13:02:35;6.55;;;3.47;;
23747;SDS011;12054;53.662;10.126;2023-06-10T13:05:01;7.85;;;3.40;;
23747;SDS011;12054;53.662;10.126;2023-06-10T13:07:27;7.95;;;3.25;;
23747;SDS011;12054;53.662;10.126;2023-06-10T13:09:52;5.90;;;3.20;;
23747;SDS011;12054;53.662;10.126;2023-06-10T13:12:18;8.10;;;3.50;;
23747;SDS011;12054;53.662;10.126;2023-06-10T13:14:44;6.93;;;3.10;;
23747;SDS011;12054;53.662;10.126;2023-06-10T13:17:09;6.63;;;3.20;;
23747;SDS011;12054;53.662;10.126;2023-06-10T13:19:35;8.48;;;3.40;;
23747;SDS011;12054;53.662;10.126;2023-06-10T13:22:01;9.85;;;3.15;;
23747;SDS011;12054;53.662;10.126;2023-06-10T13:24:27;5.90;;;3.33;;
23747;SDS011;12054;53.662;10.126;2023-06-10T13:26:53;8.50;;;2.92;;
23747;SDS011;12054;53.662;10.126;2023-06-10T13:29:19;10.77;;;4.13;;
23747;SDS011;12054;53.662;10.126;2023-06-10T13:31:45;5.93;;;3.30;;
23747;SDS011;12054;53.662;10.126;2023-06-10T13:34:10;8.40;;;3.05;;
23747;SDS011;12054;53.662;10.126;2023-06-10T13:36:36;7.07;;;3.40;;
23747;SDS011;12054;53.662;10.126;2023-06-10T13:39:01;5.10;;;2.83;;
23747;SDS011;12054;53.662;10.126;2023-06-10T13:41:27;6.50;;;3.25;;
23747;SDS011;12054;53.662;10.126;2023-06-10T13:43:54;8.27;;;3.67;;
23747;SDS011;12054;53.662;10.126;2023-06-10T13:46:20;11.05;;;3.35;;
23747;SDS011;12054;53.662;10.126;2023-06-10T13:48:46;8.88;;;3.55;;
23747;SDS011;12054;53.662;10.126;2023-06-10T13:51:12;5.97;;;2.90;;
23747;SDS011;12054;53.662;10.126;2023-06-10T13:53:37;9.60;;;3.42;;
23747;SDS011;12054;53.662;10.126;2023-06-10T13:56:04;8.90;;;3.13;;
23747;SDS011;12054;53.662;10.126;2023-06-10T13:58:30;7.88;;;2.92;;
23747;SDS011;12054;53.662;10.126;2023-06-10T14:00:55;9.18;;;3.20;;
23747;SDS011;12054;53.662;10.126;2023-06-10T14:03:21;6.03;;;2.88;;
23747;SDS011;12054;53.662;10.126;2023-06-10T14:05:46;10.98;;;3.50;;
23747;SDS011;12054;53.662;10.126;2023-06-10T14:08:15;8.63;;;2.92;;
23747;SDS011;12054;53.662;10.126;2023-06-10T14:10:40;8.68;;;3.47;;
23747;SDS011;12054;53.662;10.126;2023-06-10T14:13:06;6.85;;;3.22;;
23747;SDS011;12054;53.662;10.126;2023-06-10T14:15:31;6.43;;;2.75;;
23747;SDS011;12054;53.662;10.126;2023-06-10T14:17:57;8.85;;;3.30;;
23747;SDS011;12054;53.662;10.126;2023-06-10T14:20:23;6.85;;;3.25;;
23747;SDS011;12054;53.662;10.126;2023-06-10T14:22:50;5.65;;;3.40;;
23747;SDS011;12054;53.662;10.126;2023-06-10T14:25:15;8.95;;;3.30;;
23747;SDS011;12054;53.662;10.126;2023-06-10T14:27:42;9.93;;;3.70;;
23747;SDS011;12054;53.662;10.126;2023-06-10T14:30:08;6.25;;;3.10;;
23747;SDS011;12054;53.662;10.126;2023-06-10T14:32:33;8.43;;;3.40;;
23747;SDS011;12054;53.662;10.126;2023-06-10T14:34:59;9.88;;;3.67;;
23747;SDS011;12054;53.662;10.126;2023-06-10T14:37:25;6.13;;;3.45;;
23747;SDS011;12054;53.662;10.126;2023-06-10T14:39:51;8.20;;;3.40;;
23747;SDS011;12054;53.662;10.126;2023-06-10T14:42:16;8.30;;;2.70;;
23747;SDS011;12054;53.662;10.126;2023-06-10T14:44:42;7.15;;;2.80;;
23747;SDS011;12054;53.662;10.126;2023-06-10T14:47:07;7.25;;;2.92;;
23747;SDS011;12054;53.662;10.126;2023-06-10T14:49:33;6.60;;;3.53;;
23747;SDS011;12054;53.662;10.126;2023-06-10T14:51:58;7.85;;;3.30;;
23747;SDS011;12054;53.662;10.126;2023-06-10T14:54:24;6.97;;;2.92;;